sensor_id;sensor_type;location;lat;lon;timestamp;P1;durP1;ratioP1;P2;durP2;ratioP2
4377;SDS011;2203;53.686;9.994;2023-03-01T00:01:49;19.00;;;9.13;;
4377;SDS011;2203;53.686;9.994;2023-03-01T00:04:15;20.23;;;8.30;;
4377;SDS011;2203;53.686;9.994;2023-03-01T00:06:41;29.23;;;8.63;;
4377;SDS011;2203;53.686;9.994;2023-03-01T00:09:08;18.50;;;9.07;;
4377;SDS011;2203;53.686;9.994;2023-03-01T00:11:33;24.27;;;8.83;;
4377;SDS011;2203;53.686;9.994;2023-03-01T00:14:00;17.47;;;9.30;;
4377;SDS011;2203;53.686;9.994;2023-03-01T00:16:27;18.57;;;8.13;;
4377;SDS011;2203;53.686;9.994;2023-03-01T00:18:54;19.37;;;8.80;;
4377;SDS011;2203;53.686;9.994;2023-03-01T00:21:20;21.00;;;8.83;;
4377;SDS011;2203;53.686;9.994;2023-03-01T00:23:47;19.13;;;8.27;;
4377;SDS011;2203;53.686;9.994;2023-03-01T00:26:14;23.33;;;8.47;;
4377;SDS011;2203;53.686;9.994;2023-03-01T00:28:41;18.83;;;8.40;;
4377;SDS011;2203;53.686;9.994;2023-03-01T00:31:09;15.90;;;8.40;;
4377;SDS011;2203;53.686;9.994;2023-03-01T00:33:36;16.97;;;8.63;;
4377;SDS011;2203;53.686;9.994;2023-03-01T00:36:02;22.83;;;8.40;;
4377;SDS011;2203;53.686;9.994;2023-03-01T00:38:28;20.90;;;9.70;;
4377;SDS011;2203;53.686;9.994;2023-03-01T00:40:54;25.03;;;8.87;;
4377;SDS011;2203;53.686;9.994;2023-03-01T00:43:19;17.07;;;8.60;;
4377;SDS011;2203;53.686;9.994;2023-03-01T00:45:45;18.43;;;8.30;;
4377;SDS011;2203;53.686;9.994;2023-03-01T00:48:10;21.07;;;8.70;;
4377;SDS011;2203;53.686;9.994;2023-03-01T00:50:35;14.70;;;7.37;;
4377;SDS011;2203;53.686;9.994;2023-03-01T00:53:01;16.60;;;8.00;;
4377;SDS011;2203;53.686;9.994;2023-03-01T00:55:26;26.93;;;9.50;;
4377;SDS011;2203;53.686;9.994;2023-03-01T00:57:52;21.33;;;9.53;;
4377;SDS011;2203;53.686;9.994;2023-03-01T01:00:17;27.03;;;9.20;;
4377;SDS011;2203;53.686;9.994;2023-03-01T01:02:43;23.93;;;8.23;;
4377;SDS011;2203;53.686;9.994;2023-03-01T01:05:09;23.40;;;9.80;;
4377;SDS011;2203;53.686;9.994;2023-03-01T01:07:35;23.73;;;8.57;;
4377;SDS011;2203;53.686;9.994;2023-03-01T01:10:00;18.57;;;7.93;;
4377;SDS011;2203;53.686;9.994;2023-03-01T01:12:26;20.83;;;8.70;;
4377;SDS011;2203;53.686;9.994;2023-03-01T01:14:51;19.70;;;8.10;;
4377;SDS011;2203;53.686;9.994;2023-03-01T01:17:16;22.23;;;7.70;;
4377;SDS011;2203;53.686;9.994;2023-03-01T01:19:42;19.73;;;8.20;;
4377;SDS011;2203;53.686;9.994;2023-03-01T01:22:08;17.40;;;7.80;;
4377;SDS011;2203;53.686;9.994;2023-03-01T01:24:34;17.03;;;8.43;;
4377;SDS011;2203;53.686;9.994;2023-03-01T01:27:00;16.33;;;8.30;;
4377;SDS011;2203;53.686;9.994;2023-03-01T01:29:25;20.80;;;9.23;;
4377;SDS011;2203;53.686;9.994;2023-03-01T01:31:50;18.37;;;8.50;;
4377;SDS011;2203;53.686;9.994;2023-03-01T01:34:17;15.87;;;7.10;;
4377;SDS011;2203;53.686;9.994;2023-03-01T01:36:47;22.30;;;7.93;;
4377;SDS011;2203;53.686;9.994;2023-03-01T01:39:13;17.33;;;7.30;;
4377;SDS011;2203;53.686;9.994;2023-03-01T01:41:40;16.83;;;8.50;;
4377;SDS011;2203;53.686;9.994;2023-03-01T01:46:45;14.90;;;7.53;;
4377;SDS011;2203;53.686;9.994;2023-03-01T01:51:54;18.40;;;7.50;;
4377;SDS011;2203;53.686;9.994;2023-03-01T01:54:24;16.70;;;7.60;;
4377;SDS011;2203;53.686;9.994;2023-03-01T01:56:55;18.67;;;8.60;;
4377;SDS011;2203;53.686;9.994;2023-03-01T01:59:22;22.70;;;7.27;;
4377;SDS011;2203;53.686;9.994;2023-03-01T02:01:49;14.17;;;7.33;;
4377;SDS011;2203;53.686;9.994;2023-03-01T02:04:16;14.43;;;7.27;;
4377;SDS011;2203;53.686;9.994;2023-03-01T02:06:44;16.00;;;7.30;;
4377;SDS011;2203;53.686;9.994;2023-03-01T02:09:27;15.43;;;7.67;;
4377;SDS011;2203;53.686;9.994;2023-03-01T02:11:53;18.33;;;7.87;;
4377;SDS011;2203;53.686;9.994;2023-03-01T02:14:19;17.03;;;8.60;;
4377;SDS011;2203;53.686;9.994;2023-03-01T02:16:44;16.90;;;7.23;;
4377;SDS011;2203;53.686;9.994;2023-03-01T02:19:12;19.70;;;7.50;;
4377;SDS011;2203;53.686;9.994;2023-03-01T02:21:47;17.57;;;8.03;;
4377;SDS011;2203;53.686;9.994;2023-03-01T02:24:30;16.57;;;7.20;;
4377;SDS011;2203;53.686;9.994;2023-03-01T02:27:00;18.80;;;7.40;;
4377;SDS011;2203;53.686;9.994;2023-03-01T02:29:25;14.57;;;7.23;;
4377;SDS011;2203;53.686;9.994;2023-03-01T02:31:52;13.37;;;7.37;;
4377;SDS011;2203;53.686;9.994;2023-03-01T02:34:19;18.93;;;7.80;;
4377;SDS011;2203;53.686;9.994;2023-03-01T02:36:50;17.40;;;8.50;;
4377;SDS011;2203;53.686;9.994;2023-03-01T02:39:23;32.10;;;8.40;;
4377;SDS011;2203;53.686;9.994;2023-03-01T02:41:52;23.13;;;7.83;;
4377;SDS011;2203;53.686;9.994;2023-03-01T02:44:18;21.20;;;8.07;;
4377;SDS011;2203;53.686;9.994;2023-03-01T02:46:46;21.17;;;8.90;;
4377;SDS011;2203;53.686;9.994;2023-03-01T02:51:56;16.00;;;8.17;;
4377;SDS011;2203;53.686;9.994;2023-03-01T02:57:18;18.13;;;7.33;;
4377;SDS011;2203;53.686;9.994;2023-03-01T02:59:44;15.97;;;6.90;;
4377;SDS011;2203;53.686;9.994;2023-03-01T03:02:23;14.27;;;7.77;;
4377;SDS011;2203;53.686;9.994;2023-03-01T03:05:02;18.13;;;8.30;;
4377;SDS011;2203;53.686;9.994;2023-03-01T03:07:36;20.80;;;8.40;;
4377;SDS011;2203;53.686;9.994;2023-03-01T03:10:03;19.50;;;7.30;;
4377;SDS011;2203;53.686;9.994;2023-03-01T03:12:29;25.40;;;12.57;;
4377;SDS011;2203;53.686;9.994;2023-03-01T03:14:55;20.40;;;9.23;;
4377;SDS011;2203;53.686;9.994;2023-03-01T03:17:20;17.97;;;8.03;;
4377;SDS011;2203;53.686;9.994;2023-03-01T03:19:46;20.37;;;8.13;;
4377;SDS011;2203;53.686;9.994;2023-03-01T03:22:14;15.43;;;7.20;;
4377;SDS011;2203;53.686;9.994;2023-03-01T03:24:39;17.00;;;7.73;;
4377;SDS011;2203;53.686;9.994;2023-03-01T03:27:05;18.00;;;7.70;;
4377;SDS011;2203;53.686;9.994;2023-03-01T03:29:31;14.80;;;7.90;;
4377;SDS011;2203;53.686;9.994;2023-03-01T03:31:57;16.40;;;7.20;;
4377;SDS011;2203;53.686;9.994;2023-03-01T03:34:22;14.50;;;7.10;;
4377;SDS011;2203;53.686;9.994;2023-03-01T03:36:48;13.90;;;7.43;;
4377;SDS011;2203;53.686;9.994;2023-03-01T03:39:21;15.90;;;6.87;;
4377;SDS011;2203;53.686;9.994;2023-03-01T03:41:48;14.23;;;7.10;;
4377;SDS011;2203;53.686;9.994;2023-03-01T03:44:13;20.03;;;7.43;;
4377;SDS011;2203;53.686;9.994;2023-03-01T03:46:38;18.70;;;7.50;;
4377;SDS011;2203;53.686;9.994;2023-03-01T03:49:04;11.93;;;6.77;;
4377;SDS011;2203;53.686;9.994;2023-03-01T03:51:29;14.50;;;6.63;;
4377;SDS011;2203;53.686;9.994;2023-03-01T03:53:54;17.37;;;8.53;;
4377;SDS011;2203;53.686;9.994;2023-03-01T03:56:20;16.30;;;7.87;;
4377;SDS011;2203;53.686;9.994;2023-03-01T03:58:45;12.33;;;6.43;;
4377;SDS011;2203;53.686;9.994;2023-03-01T04:01:10;13.90;;;7.37;;
4377;SDS011;2203;53.686;9.994;2023-03-01T04:03:39;17.80;;;7.00;;
4377;SDS011;2203;53.686;9.994;2023-03-01T04:06:06;12.80;;;6.80;;
4377;SDS011;2203;53.686;9.994;2023-03-01T04:08:32;13.60;;;7.40;;
4377;SDS011;2203;53.686;9.994;2023-03-01T04:10:59;11.80;;;6.00;;
4377;SDS011;2203;53.686;9.994;2023-03-01T04:13:45;13.80;;;6.23;;
4377;SDS011;2203;53.686;9.994;2023-03-01T04:16:10;11.33;;;5.30;;
4377;SDS011;2203;53.686;9.994;2023-03-01T04:18:36;13.60;;;6.87;;
4377;SDS011;2203;53.686;9.994;2023-03-01T04:21:01;10.33;;;5.83;;
4377;SDS011;2203;53.686;9.994;2023-03-01T04:23:27;17.73;;;6.70;;
4377;SDS011;2203;53.686;9.994;2023-03-01T04:25:53;11.70;;;6.10;;
4377;SDS011;2203;53.686;9.994;2023-03-01T04:28:32;13.13;;;6.17;;
4377;SDS011;2203;53.686;9.994;2023-03-01T04:31:02;12.47;;;6.17;;
4377;SDS011;2203;53.686;9.994;2023-03-01T04:33:37;14.63;;;6.77;;
4377;SDS011;2203;53.686;9.994;2023-03-01T04:36:06;10.23;;;5.90;;
4377;SDS011;2203;53.686;9.994;2023-03-01T04:38:33;7.67;;;4.70;;
4377;SDS011;2203;53.686;9.994;2023-03-01T04:41:00;7.43;;;4.67;;
4377;SDS011;2203;53.686;9.994;2023-03-01T04:43:25;17.80;;;5.53;;
4377;SDS011;2203;53.686;9.994;2023-03-01T04:45:50;9.90;;;4.83;;
4377;SDS011;2203;53.686;9.994;2023-03-01T04:48:16;11.53;;;6.33;;
4377;SDS011;2203;53.686;9.994;2023-03-01T04:50:41;12.77;;;6.50;;
4377;SDS011;2203;53.686;9.994;2023-03-01T04:53:06;10.30;;;5.73;;
4377;SDS011;2203;53.686;9.994;2023-03-01T04:55:33;10.70;;;5.63;;
4377;SDS011;2203;53.686;9.994;2023-03-01T04:57:58;13.13;;;5.93;;
4377;SDS011;2203;53.686;9.994;2023-03-01T05:00:24;10.50;;;5.43;;
4377;SDS011;2203;53.686;9.994;2023-03-01T05:02:51;8.63;;;4.93;;
4377;SDS011;2203;53.686;9.994;2023-03-01T05:05:22;15.23;;;5.87;;
4377;SDS011;2203;53.686;9.994;2023-03-01T05:07:52;12.47;;;5.90;;
4377;SDS011;2203;53.686;9.994;2023-03-01T05:10:19;13.03;;;5.97;;
4377;SDS011;2203;53.686;9.994;2023-03-01T05:12:44;13.23;;;6.10;;
4377;SDS011;2203;53.686;9.994;2023-03-01T05:15:10;16.20;;;6.83;;
4377;SDS011;2203;53.686;9.994;2023-03-01T05:17:35;10.10;;;6.00;;
4377;SDS011;2203;53.686;9.994;2023-03-01T05:20:01;13.37;;;6.33;;
4377;SDS011;2203;53.686;9.994;2023-03-01T05:22:27;11.60;;;6.40;;
4377;SDS011;2203;53.686;9.994;2023-03-01T05:24:52;14.80;;;6.20;;
4377;SDS011;2203;53.686;9.994;2023-03-01T05:27:19;11.47;;;5.50;;
4377;SDS011;2203;53.686;9.994;2023-03-01T05:29:47;15.80;;;6.67;;
4377;SDS011;2203;53.686;9.994;2023-03-01T05:32:12;12.40;;;5.83;;
4377;SDS011;2203;53.686;9.994;2023-03-01T05:34:40;10.50;;;6.17;;
4377;SDS011;2203;53.686;9.994;2023-03-01T05:37:06;7.37;;;4.60;;
4377;SDS011;2203;53.686;9.994;2023-03-01T05:39:32;13.43;;;5.93;;
4377;SDS011;2203;53.686;9.994;2023-03-01T05:41:59;10.77;;;5.93;;
4377;SDS011;2203;53.686;9.994;2023-03-01T05:44:26;12.10;;;5.70;;
4377;SDS011;2203;53.686;9.994;2023-03-01T05:46:52;13.10;;;5.63;;
4377;SDS011;2203;53.686;9.994;2023-03-01T05:49:17;13.50;;;6.17;;
4377;SDS011;2203;53.686;9.994;2023-03-01T05:51:47;7.93;;;4.90;;
4377;SDS011;2203;53.686;9.994;2023-03-01T05:54:13;21.43;;;6.37;;
4377;SDS011;2203;53.686;9.994;2023-03-01T05:56:39;14.33;;;6.93;;
4377;SDS011;2203;53.686;9.994;2023-03-01T05:59:04;16.57;;;6.60;;
4377;SDS011;2203;53.686;9.994;2023-03-01T06:01:30;12.30;;;6.73;;
4377;SDS011;2203;53.686;9.994;2023-03-01T06:03:59;11.33;;;5.83;;
4377;SDS011;2203;53.686;9.994;2023-03-01T06:06:24;13.23;;;7.23;;
4377;SDS011;2203;53.686;9.994;2023-03-01T06:08:50;25.40;;;6.50;;
4377;SDS011;2203;53.686;9.994;2023-03-01T06:11:16;16.13;;;6.50;;
4377;SDS011;2203;53.686;9.994;2023-03-01T06:13:45;24.40;;;6.50;;
4377;SDS011;2203;53.686;9.994;2023-03-01T06:16:11;13.50;;;6.03;;
4377;SDS011;2203;53.686;9.994;2023-03-01T06:18:37;18.87;;;6.20;;
4377;SDS011;2203;53.686;9.994;2023-03-01T06:21:03;13.60;;;5.53;;
4377;SDS011;2203;53.686;9.994;2023-03-01T06:23:30;15.53;;;7.80;;
4377;SDS011;2203;53.686;9.994;2023-03-01T06:25:55;16.13;;;6.83;;
4377;SDS011;2203;53.686;9.994;2023-03-01T06:28:21;17.80;;;6.23;;
4377;SDS011;2203;53.686;9.994;2023-03-01T06:30:46;10.13;;;6.10;;
4377;SDS011;2203;53.686;9.994;2023-03-01T06:33:11;17.43;;;7.60;;
4377;SDS011;2203;53.686;9.994;2023-03-01T06:35:37;14.50;;;6.60;;
4377;SDS011;2203;53.686;9.994;2023-03-01T06:38:03;24.20;;;6.87;;
4377;SDS011;2203;53.686;9.994;2023-03-01T06:40:30;22.13;;;6.20;;
4377;SDS011;2203;53.686;9.994;2023-03-01T06:42:56;13.13;;;6.90;;
4377;SDS011;2203;53.686;9.994;2023-03-01T06:45:21;11.80;;;6.50;;
4377;SDS011;2203;53.686;9.994;2023-03-01T06:47:47;12.70;;;6.20;;
4377;SDS011;2203;53.686;9.994;2023-03-01T06:50:13;29.13;;;6.57;;
4377;SDS011;2203;53.686;9.994;2023-03-01T06:52:39;21.53;;;7.10;;
4377;SDS011;2203;53.686;9.994;2023-03-01T06:55:04;14.07;;;7.47;;
4377;SDS011;2203;53.686;9.994;2023-03-01T06:57:30;17.40;;;8.53;;
4377;SDS011;2203;53.686;9.994;2023-03-01T06:59:56;32.13;;;9.20;;
4377;SDS011;2203;53.686;9.994;2023-03-01T07:02:21;19.07;;;7.60;;
4377;SDS011;2203;53.686;9.994;2023-03-01T07:04:48;18.90;;;8.67;;
4377;SDS011;2203;53.686;9.994;2023-03-01T07:07:14;15.63;;;7.70;;
4377;SDS011;2203;53.686;9.994;2023-03-01T07:09:40;13.30;;;7.60;;
4377;SDS011;2203;53.686;9.994;2023-03-01T07:12:05;22.30;;;8.03;;
4377;SDS011;2203;53.686;9.994;2023-03-01T07:14:31;23.07;;;9.00;;
4377;SDS011;2203;53.686;9.994;2023-03-01T07:16:56;21.30;;;8.03;;
4377;SDS011;2203;53.686;9.994;2023-03-01T07:19:21;14.90;;;8.03;;
4377;SDS011;2203;53.686;9.994;2023-03-01T07:21:47;19.40;;;8.70;;
4377;SDS011;2203;53.686;9.994;2023-03-01T07:24:12;15.90;;;8.20;;
4377;SDS011;2203;53.686;9.994;2023-03-01T07:26:38;26.43;;;9.20;;
4377;SDS011;2203;53.686;9.994;2023-03-01T07:29:04;13.23;;;7.47;;
4377;SDS011;2203;53.686;9.994;2023-03-01T07:31:30;20.53;;;8.27;;
4377;SDS011;2203;53.686;9.994;2023-03-01T07:33:55;16.30;;;8.30;;
4377;SDS011;2203;53.686;9.994;2023-03-01T07:36:21;18.47;;;9.50;;
4377;SDS011;2203;53.686;9.994;2023-03-01T07:38:47;16.43;;;8.47;;
4377;SDS011;2203;53.686;9.994;2023-03-01T07:41:12;29.33;;;8.80;;
4377;SDS011;2203;53.686;9.994;2023-03-01T07:43:38;19.93;;;9.17;;
4377;SDS011;2203;53.686;9.994;2023-03-01T07:46:04;16.63;;;8.90;;
4377;SDS011;2203;53.686;9.994;2023-03-01T07:48:30;20.63;;;8.67;;
4377;SDS011;2203;53.686;9.994;2023-03-01T07:51:02;19.83;;;9.10;;
4377;SDS011;2203;53.686;9.994;2023-03-01T07:53:29;25.23;;;10.10;;
4377;SDS011;2203;53.686;9.994;2023-03-01T07:56:06;32.30;;;10.63;;
4377;SDS011;2203;53.686;9.994;2023-03-01T07:58:34;18.87;;;8.63;;
4377;SDS011;2203;53.686;9.994;2023-03-01T08:01:01;27.07;;;9.60;;
4377;SDS011;2203;53.686;9.994;2023-03-01T08:03:27;19.33;;;10.30;;
4377;SDS011;2203;53.686;9.994;2023-03-01T08:05:53;18.27;;;9.30;;
4377;SDS011;2203;53.686;9.994;2023-03-01T08:08:18;24.83;;;11.30;;
4377;SDS011;2203;53.686;9.994;2023-03-01T08:10:43;21.53;;;10.10;;
4377;SDS011;2203;53.686;9.994;2023-03-01T08:13:09;22.80;;;10.97;;
4377;SDS011;2203;53.686;9.994;2023-03-01T08:15:34;19.37;;;9.93;;
4377;SDS011;2203;53.686;9.994;2023-03-01T08:17:59;24.97;;;10.37;;
4377;SDS011;2203;53.686;9.994;2023-03-01T08:20:25;23.80;;;10.93;;
4377;SDS011;2203;53.686;9.994;2023-03-01T08:22:51;27.20;;;10.50;;
4377;SDS011;2203;53.686;9.994;2023-03-01T08:25:16;26.97;;;10.77;;
4377;SDS011;2203;53.686;9.994;2023-03-01T08:27:42;22.27;;;10.40;;
4377;SDS011;2203;53.686;9.994;2023-03-01T08:30:07;20.10;;;10.70;;
4377;SDS011;2203;53.686;9.994;2023-03-01T08:32:37;24.00;;;11.40;;
4377;SDS011;2203;53.686;9.994;2023-03-01T08:35:03;22.53;;;11.40;;
4377;SDS011;2203;53.686;9.994;2023-03-01T08:37:29;26.23;;;12.50;;
4377;SDS011;2203;53.686;9.994;2023-03-01T08:39:56;22.03;;;11.30;;
4377;SDS011;2203;53.686;9.994;2023-03-01T08:42:21;29.27;;;11.80;;
4377;SDS011;2203;53.686;9.994;2023-03-01T08:44:46;28.83;;;12.03;;
4377;SDS011;2203;53.686;9.994;2023-03-01T08:47:12;25.27;;;12.23;;
4377;SDS011;2203;53.686;9.994;2023-03-01T08:49:37;28.43;;;13.80;;
4377;SDS011;2203;53.686;9.994;2023-03-01T08:52:02;25.47;;;11.57;;
4377;SDS011;2203;53.686;9.994;2023-03-01T08:54:28;22.53;;;11.33;;
4377;SDS011;2203;53.686;9.994;2023-03-01T08:56:53;23.63;;;11.50;;
4377;SDS011;2203;53.686;9.994;2023-03-01T08:59:19;23.97;;;13.13;;
4377;SDS011;2203;53.686;9.994;2023-03-01T09:01:44;28.40;;;13.33;;
4377;SDS011;2203;53.686;9.994;2023-03-01T09:04:10;25.57;;;12.37;;
4377;SDS011;2203;53.686;9.994;2023-03-01T09:06:36;24.37;;;12.47;;
4377;SDS011;2203;53.686;9.994;2023-03-01T09:09:02;26.27;;;14.43;;
4377;SDS011;2203;53.686;9.994;2023-03-01T09:11:28;26.03;;;13.07;;
4377;SDS011;2203;53.686;9.994;2023-03-01T09:13:54;28.17;;;14.90;;
4377;SDS011;2203;53.686;9.994;2023-03-01T09:16:20;31.60;;;14.30;;
4377;SDS011;2203;53.686;9.994;2023-03-01T09:18:50;27.70;;;13.00;;
4377;SDS011;2203;53.686;9.994;2023-03-01T09:21:16;24.93;;;12.30;;
4377;SDS011;2203;53.686;9.994;2023-03-01T09:23:44;23.83;;;13.03;;
4377;SDS011;2203;53.686;9.994;2023-03-01T09:26:14;25.13;;;12.10;;
4377;SDS011;2203;53.686;9.994;2023-03-01T09:28:44;21.00;;;10.70;;
4377;SDS011;2203;53.686;9.994;2023-03-01T09:31:11;25.40;;;12.50;;
4377;SDS011;2203;53.686;9.994;2023-03-01T09:33:38;28.70;;;12.23;;
4377;SDS011;2203;53.686;9.994;2023-03-01T09:36:04;24.20;;;12.73;;
4377;SDS011;2203;53.686;9.994;2023-03-01T09:38:32;26.10;;;11.80;;
4377;SDS011;2203;53.686;9.994;2023-03-01T09:40:58;19.93;;;10.33;;
4377;SDS011;2203;53.686;9.994;2023-03-01T09:46:13;29.30;;;12.67;;
4377;SDS011;2203;53.686;9.994;2023-03-01T09:49:02;19.23;;;10.83;;
4377;SDS011;2203;53.686;9.994;2023-03-01T09:51:32;30.90;;;11.43;;
4377;SDS011;2203;53.686;9.994;2023-03-01T09:54:01;20.93;;;10.17;;
4377;SDS011;2203;53.686;9.994;2023-03-01T09:56:32;22.17;;;10.93;;
4377;SDS011;2203;53.686;9.994;2023-03-01T10:01:53;23.47;;;11.40;;
4377;SDS011;2203;53.686;9.994;2023-03-01T10:09:34;19.30;;;10.90;;
4377;SDS011;2203;53.686;9.994;2023-03-01T10:12:00;24.43;;;9.53;;
4377;SDS011;2203;53.686;9.994;2023-03-01T10:22:49;26.73;;;10.03;;
4377;SDS011;2203;53.686;9.994;2023-03-01T10:25:23;22.50;;;9.60;;
4377;SDS011;2203;53.686;9.994;2023-03-01T10:28:04;19.20;;;9.33;;
4377;SDS011;2203;53.686;9.994;2023-03-01T10:30:34;17.47;;;9.20;;
4377;SDS011;2203;53.686;9.994;2023-03-01T10:33:04;19.73;;;9.53;;
4377;SDS011;2203;53.686;9.994;2023-03-01T10:35:39;21.83;;;10.00;;
4377;SDS011;2203;53.686;9.994;2023-03-01T10:38:09;16.20;;;8.90;;
4377;SDS011;2203;53.686;9.994;2023-03-01T10:40:36;16.27;;;9.30;;
4377;SDS011;2203;53.686;9.994;2023-03-01T10:43:15;18.80;;;10.30;;
4377;SDS011;2203;53.686;9.994;2023-03-01T10:45:41;23.10;;;9.60;;
4377;SDS011;2203;53.686;9.994;2023-03-01T10:50:46;16.73;;;9.07;;
4377;SDS011;2203;53.686;9.994;2023-03-01T10:53:21;24.60;;;13.97;;
4377;SDS011;2203;53.686;9.994;2023-03-01T10:56:00;20.93;;;10.70;;
4377;SDS011;2203;53.686;9.994;2023-03-01T10:58:36;22.90;;;11.63;;
4377;SDS011;2203;53.686;9.994;2023-03-01T11:03:45;17.10;;;9.10;;
4377;SDS011;2203;53.686;9.994;2023-03-01T11:06:33;16.90;;;9.40;;
4377;SDS011;2203;53.686;9.994;2023-03-01T11:09:21;19.20;;;10.10;;
4377;SDS011;2203;53.686;9.994;2023-03-01T11:11:51;20.70;;;11.33;;
4377;SDS011;2203;53.686;9.994;2023-03-01T11:14:18;15.70;;;10.63;;
4377;SDS011;2203;53.686;9.994;2023-03-01T11:17:11;25.67;;;10.67;;
4377;SDS011;2203;53.686;9.994;2023-03-01T11:19:38;26.13;;;11.40;;
4377;SDS011;2203;53.686;9.994;2023-03-01T11:22:07;22.27;;;10.50;;
4377;SDS011;2203;53.686;9.994;2023-03-01T11:24:52;20.60;;;10.53;;
4377;SDS011;2203;53.686;9.994;2023-03-01T11:29:55;19.73;;;9.97;;
4377;SDS011;2203;53.686;9.994;2023-03-01T11:32:27;15.50;;;9.33;;
4377;SDS011;2203;53.686;9.994;2023-03-01T11:34:59;15.80;;;9.97;;
4377;SDS011;2203;53.686;9.994;2023-03-01T11:37:48;14.83;;;8.47;;
4377;SDS011;2203;53.686;9.994;2023-03-01T11:40:23;14.90;;;8.60;;
4377;SDS011;2203;53.686;9.994;2023-03-01T11:43:01;16.10;;;8.53;;
4377;SDS011;2203;53.686;9.994;2023-03-01T11:45:40;13.87;;;8.13;;
4377;SDS011;2203;53.686;9.994;2023-03-01T11:51:13;17.13;;;9.00;;
4377;SDS011;2203;53.686;9.994;2023-03-01T11:56:47;16.80;;;7.70;;
4377;SDS011;2203;53.686;9.994;2023-03-01T12:20:40;13.83;;;6.53;;
4377;SDS011;2203;53.686;9.994;2023-03-01T12:23:23;12.30;;;6.67;;
4377;SDS011;2203;53.686;9.994;2023-03-01T12:29:50;13.10;;;6.83;;
4377;SDS011;2203;53.686;9.994;2023-03-01T12:42:22;8.73;;;5.00;;
4377;SDS011;2203;53.686;9.994;2023-03-01T12:50:04;14.30;;;5.40;;
4377;SDS011;2203;53.686;9.994;2023-03-01T12:52:41;14.20;;;6.80;;
4377;SDS011;2203;53.686;9.994;2023-03-01T12:55:18;11.90;;;6.10;;
4377;SDS011;2203;53.686;9.994;2023-03-01T12:58:02;12.83;;;5.27;;
4377;SDS011;2203;53.686;9.994;2023-03-01T13:00:32;12.47;;;5.40;;
4377;SDS011;2203;53.686;9.994;2023-03-01T13:06:04;10.73;;;5.53;;
4377;SDS011;2203;53.686;9.994;2023-03-01T13:08:58;11.57;;;5.67;;
4377;SDS011;2203;53.686;9.994;2023-03-01T13:11:51;11.57;;;5.40;;
4377;SDS011;2203;53.686;9.994;2023-03-01T13:16:48;7.70;;;4.87;;
4377;SDS011;2203;53.686;9.994;2023-03-01T13:19:15;10.50;;;5.83;;
4377;SDS011;2203;53.686;9.994;2023-03-01T13:21:48;18.87;;;6.27;;
4377;SDS011;2203;53.686;9.994;2023-03-01T13:24:33;11.40;;;6.00;;
4377;SDS011;2203;53.686;9.994;2023-03-01T13:29:48;8.17;;;4.57;;
4377;SDS011;2203;53.686;9.994;2023-03-01T13:32:37;6.97;;;4.10;;
4377;SDS011;2203;53.686;9.994;2023-03-01T13:37:40;10.00;;;4.00;;
4377;SDS011;2203;53.686;9.994;2023-03-01T13:45:53;12.07;;;4.87;;
4377;SDS011;2203;53.686;9.994;2023-03-01T13:48:03;18.33;;;5.23;;
4377;SDS011;2203;53.686;9.994;2023-03-01T13:50:36;9.40;;;5.33;;
4377;SDS011;2203;53.686;9.994;2023-03-01T13:53:09;12.33;;;5.03;;
4377;SDS011;2203;53.686;9.994;2023-03-01T13:55:43;12.73;;;5.73;;
4377;SDS011;2203;53.686;9.994;2023-03-01T13:58:19;9.93;;;5.63;;
4377;SDS011;2203;53.686;9.994;2023-03-01T14:00:47;10.50;;;5.60;;
4377;SDS011;2203;53.686;9.994;2023-03-01T14:03:14;11.90;;;5.97;;
4377;SDS011;2203;53.686;9.994;2023-03-01T14:05:43;8.60;;;5.60;;
4377;SDS011;2203;53.686;9.994;2023-03-01T14:08:22;10.37;;;4.80;;
4377;SDS011;2203;53.686;9.994;2023-03-01T14:14:23;9.47;;;4.93;;
4377;SDS011;2203;53.686;9.994;2023-03-01T14:19:45;4.50;;;3.03;;
4377;SDS011;2203;53.686;9.994;2023-03-01T14:22:25;6.37;;;3.60;;
4377;SDS011;2203;53.686;9.994;2023-03-01T14:24:56;10.80;;;5.30;;
4377;SDS011;2203;53.686;9.994;2023-03-01T14:27:28;8.43;;;5.13;;
4377;SDS011;2203;53.686;9.994;2023-03-01T14:29:59;11.90;;;5.60;;
4377;SDS011;2203;53.686;9.994;2023-03-01T14:32:27;9.33;;;5.07;;
4377;SDS011;2203;53.686;9.994;2023-03-01T14:34:54;8.83;;;5.40;;
4377;SDS011;2203;53.686;9.994;2023-03-01T14:37:22;13.37;;;7.37;;
4377;SDS011;2203;53.686;9.994;2023-03-01T14:39:50;13.73;;;7.40;;
4377;SDS011;2203;53.686;9.994;2023-03-01T14:42:17;13.07;;;6.97;;
4377;SDS011;2203;53.686;9.994;2023-03-01T14:44:44;11.70;;;6.50;;
4377;SDS011;2203;53.686;9.994;2023-03-01T14:47:12;11.30;;;6.43;;
4377;SDS011;2203;53.686;9.994;2023-03-01T14:49:41;13.00;;;6.90;;
4377;SDS011;2203;53.686;9.994;2023-03-01T14:52:17;15.80;;;7.60;;
4377;SDS011;2203;53.686;9.994;2023-03-01T14:54:46;15.70;;;8.60;;
4377;SDS011;2203;53.686;9.994;2023-03-01T14:57:15;10.60;;;6.50;;
4377;SDS011;2203;53.686;9.994;2023-03-01T14:59:42;10.90;;;6.20;;
4377;SDS011;2203;53.686;9.994;2023-03-01T15:02:08;9.70;;;5.90;;
4377;SDS011;2203;53.686;9.994;2023-03-01T15:04:42;15.40;;;6.37;;
4377;SDS011;2203;53.686;9.994;2023-03-01T15:07:10;11.83;;;5.40;;
4377;SDS011;2203;53.686;9.994;2023-03-01T15:09:39;8.73;;;4.63;;
4377;SDS011;2203;53.686;9.994;2023-03-01T15:17:53;6.90;;;4.20;;
4377;SDS011;2203;53.686;9.994;2023-03-01T15:20:23;7.40;;;3.80;;
4377;SDS011;2203;53.686;9.994;2023-03-01T15:22:51;5.83;;;3.80;;
4377;SDS011;2203;53.686;9.994;2023-03-01T15:25:18;7.97;;;4.97;;
4377;SDS011;2203;53.686;9.994;2023-03-01T15:27:48;6.60;;;4.10;;
4377;SDS011;2203;53.686;9.994;2023-03-01T15:30:25;5.93;;;3.90;;
4377;SDS011;2203;53.686;9.994;2023-03-01T15:35:54;6.13;;;4.73;;
4377;SDS011;2203;53.686;9.994;2023-03-01T15:40:56;9.43;;;5.20;;
4377;SDS011;2203;53.686;9.994;2023-03-01T15:43:42;9.53;;;6.57;;
4377;SDS011;2203;53.686;9.994;2023-03-01T15:49:06;12.00;;;6.83;;
4377;SDS011;2203;53.686;9.994;2023-03-01T15:51:46;10.97;;;6.20;;
4377;SDS011;2203;53.686;9.994;2023-03-01T15:54:14;14.20;;;7.43;;
4377;SDS011;2203;53.686;9.994;2023-03-01T15:56:43;12.03;;;6.80;;
4377;SDS011;2203;53.686;9.994;2023-03-01T15:59:09;11.03;;;6.37;;
4377;SDS011;2203;53.686;9.994;2023-03-01T16:01:38;11.93;;;6.90;;
4377;SDS011;2203;53.686;9.994;2023-03-01T16:04:04;16.60;;;8.23;;
4377;SDS011;2203;53.686;9.994;2023-03-01T16:06:29;11.87;;;7.27;;
4377;SDS011;2203;53.686;9.994;2023-03-01T16:08:54;15.00;;;8.40;;
4377;SDS011;2203;53.686;9.994;2023-03-01T16:11:20;13.00;;;6.33;;
4377;SDS011;2203;53.686;9.994;2023-03-01T16:13:46;14.40;;;8.47;;
4377;SDS011;2203;53.686;9.994;2023-03-01T16:16:12;13.23;;;7.70;;
4377;SDS011;2203;53.686;9.994;2023-03-01T16:18:41;13.63;;;7.97;;
4377;SDS011;2203;53.686;9.994;2023-03-01T16:21:10;15.90;;;8.20;;
4377;SDS011;2203;53.686;9.994;2023-03-01T16:23:37;13.87;;;8.53;;
4377;SDS011;2203;53.686;9.994;2023-03-01T16:26:02;16.90;;;8.40;;
4377;SDS011;2203;53.686;9.994;2023-03-01T16:28:28;13.53;;;7.90;;
4377;SDS011;2203;53.686;9.994;2023-03-01T16:30:53;13.77;;;8.13;;
4377;SDS011;2203;53.686;9.994;2023-03-01T16:33:19;14.63;;;7.00;;
4377;SDS011;2203;53.686;9.994;2023-03-01T16:35:44;19.70;;;8.30;;
4377;SDS011;2203;53.686;9.994;2023-03-01T16:38:10;15.33;;;7.97;;
4377;SDS011;2203;53.686;9.994;2023-03-01T16:40:36;12.97;;;7.57;;
4377;SDS011;2203;53.686;9.994;2023-03-01T16:43:01;12.30;;;7.80;;
4377;SDS011;2203;53.686;9.994;2023-03-01T16:45:27;17.67;;;8.30;;
4377;SDS011;2203;53.686;9.994;2023-03-01T16:47:53;12.80;;;8.13;;
4377;SDS011;2203;53.686;9.994;2023-03-01T16:50:19;12.97;;;8.03;;
4377;SDS011;2203;53.686;9.994;2023-03-01T16:52:44;13.93;;;6.60;;
4377;SDS011;2203;53.686;9.994;2023-03-01T16:55:10;12.70;;;7.83;;
4377;SDS011;2203;53.686;9.994;2023-03-01T16:57:39;14.20;;;7.67;;
4377;SDS011;2203;53.686;9.994;2023-03-01T17:00:05;9.63;;;6.50;;
4377;SDS011;2203;53.686;9.994;2023-03-01T17:02:33;14.93;;;7.87;;
4377;SDS011;2203;53.686;9.994;2023-03-01T17:04:59;10.17;;;6.17;;
4377;SDS011;2203;53.686;9.994;2023-03-01T17:07:24;10.63;;;6.87;;
4377;SDS011;2203;53.686;9.994;2023-03-01T17:09:50;11.97;;;7.20;;